createdAt,value
2023-03-11T00:00:18.530Z,3.12
2023-03-11T00:02:46.987Z,3.04
2023-03-11T00:05:22.305Z,2.86
2023-03-11T00:07:49.804Z,2.71
2023-03-11T00:10:19.448Z,2.65
2023-03-11T00:12:45.883Z,2.61
2023-03-11T00:15:13.160Z,2.52
2023-03-11T00:17:40.165Z,2.51
2023-03-11T00:20:08.697Z,2.47
2023-03-11T00:22:35.139Z,2.39
2023-03-11T00:25:01.811Z,2.41
2023-03-11T00:27:28.468Z,2.35
2023-03-11T00:29:54.823Z,2.19
2023-03-11T00:32:21.290Z,2.15
2023-03-11T00:34:47.699Z,2.12
2023-03-11T00:37:14.364Z,2.08
2023-03-11T00:39:40.724Z,2.06
2023-03-11T00:42:07.763Z,1.90
2023-03-11T00:44:34.108Z,1.84
2023-03-11T00:47:00.475Z,1.89
2023-03-11T00:49:26.917Z,1.84
2023-03-11T00:51:53.495Z,1.74
2023-03-11T00:54:21.221Z,1.84
2023-03-11T00:56:47.610Z,1.71
2023-03-11T00:59:13.980Z,1.70
2023-03-11T01:01:40.382Z,1.63
2023-03-11T01:04:06.945Z,1.72
2023-03-11T01:06:44.855Z,1.76
2023-03-11T01:09:11.847Z,1.72
2023-03-11T01:11:38.303Z,1.67
2023-03-11T01:14:04.772Z,1.60
2023-03-11T01:16:31.292Z,1.61
2023-03-11T01:18:57.630Z,1.66
2023-03-11T01:21:23.951Z,1.59
2023-03-11T01:23:50.290Z,1.65
2023-03-11T01:26:16.678Z,1.65
2023-03-11T01:28:43.148Z,1.52
2023-03-11T01:31:10.302Z,1.56
2023-03-11T01:33:36.892Z,1.56
2023-03-11T01:36:03.518Z,1.48
2023-03-11T01:38:30.024Z,1.52
2023-03-11T01:40:56.437Z,1.50
2023-03-11T01:43:43.481Z,1.54
2023-03-11T01:46:26.226Z,1.46
2023-03-11T01:49:03.880Z,1.50
2023-03-11T01:51:35.726Z,1.55
2023-03-11T01:54:06.916Z,1.52
2023-03-11T01:56:35.229Z,1.39
2023-03-11T01:59:01.831Z,1.43
2023-03-11T02:01:29.027Z,1.36
2023-03-11T02:03:57.705Z,1.42
2023-03-11T02:06:25.642Z,1.42
2023-03-11T02:08:52.134Z,1.40
2023-03-11T02:11:24.932Z,1.43
2023-03-11T02:13:54.240Z,1.29
2023-03-11T02:16:20.663Z,1.33
2023-03-11T02:18:47.076Z,1.32
2023-03-11T02:21:28.703Z,1.27
2023-03-11T02:24:07.558Z,1.32
2023-03-11T02:26:52.240Z,1.25
2023-03-11T02:29:21.233Z,1.19
2023-03-11T02:31:48.810Z,1.18
2023-03-11T02:34:25.285Z,1.20
2023-03-11T02:36:51.717Z,1.25
2023-03-11T02:39:30.262Z,1.26
2023-03-11T02:41:57.326Z,1.19
2023-03-11T02:44:24.201Z,1.18
2023-03-11T02:46:51.080Z,1.20
2023-03-11T02:49:18.518Z,1.19
2023-03-11T02:51:44.941Z,1.18
2023-03-11T02:54:11.334Z,1.20
2023-03-11T02:56:37.740Z,1.10
2023-03-11T02:59:04.127Z,1.08
2023-03-11T03:01:30.635Z,1.02
2023-03-11T03:03:57.504Z,1.02
2023-03-11T03:06:24.961Z,0.85
2023-03-11T03:08:51.375Z,0.82
2023-03-11T03:11:17.721Z,0.79
2023-03-11T03:13:44.221Z,0.81
2023-03-11T03:16:10.631Z,0.76
2023-03-11T03:18:38.002Z,0.71
2023-03-11T03:21:05.101Z,0.73
2023-03-11T03:23:35.174Z,0.64
2023-03-11T03:26:02.311Z,0.52
2023-03-11T03:28:28.762Z,0.48
2023-03-11T03:30:55.165Z,0.44
2023-03-11T03:33:21.628Z,0.37
2023-03-11T03:35:48.807Z,0.38
2023-03-11T03:38:15.248Z,0.34
2023-03-11T03:40:46.485Z,0.28
2023-03-11T03:43:12.909Z,0.27
2023-03-11T03:45:39.364Z,0.30
2023-03-11T03:48:06.430Z,0.36
2023-03-11T03:50:32.850Z,0.35
2023-03-11T03:52:59.204Z,0.34
2023-03-11T03:55:25.556Z,0.30
2023-03-11T03:57:51.900Z,0.29
2023-03-11T04:00:20.014Z,0.32
2023-03-11T04:02:46.352Z,0.31
2023-03-11T04:05:12.797Z,0.23
2023-03-11T04:07:39.228Z,0.19
2023-03-11T04:10:06.378Z,0.19
2023-03-11T04:12:33.092Z,0.21
2023-03-11T04:14:59.464Z,0.17
2023-03-11T04:17:25.857Z,0.11
2023-03-11T04:19:52.221Z,0.14
2023-03-11T04:22:18.621Z,0.12
2023-03-11T04:24:44.964Z,0.08
2023-03-11T04:27:11.303Z,0.15
2023-03-11T04:29:37.773Z,0.08
2023-03-11T04:32:04.438Z,0.09
2023-03-11T04:34:30.817Z,0.04
2023-03-11T04:36:57.159Z,0.07
2023-03-11T04:39:23.636Z,0.04
2023-03-11T04:41:50.057Z,0.04
2023-03-11T04:44:16.442Z,0.04
2023-03-11T04:46:43.169Z,0.02
2023-03-11T04:49:10.322Z,0.01
2023-03-11T04:51:36.833Z,0.02
2023-03-11T04:54:03.445Z,0.01
2023-03-11T04:56:30.058Z,0.02
2023-03-11T04:58:56.386Z,0.01
2023-03-11T05:01:22.815Z,0.04
2023-03-11T05:03:49.236Z,0.05
2023-03-11T05:06:15.609Z,0.08
2023-03-11T05:08:41.978Z,0.05
2023-03-11T05:11:08.815Z,0.07
2023-03-11T05:13:35.421Z,0.06
2023-03-11T05:16:01.781Z,0.13
2023-03-11T05:18:28.502Z,0.08
2023-03-11T05:20:54.892Z,0.11
2023-03-11T05:23:21.229Z,0.11
2023-03-11T05:25:47.595Z,0.11
2023-03-11T05:28:14.971Z,0.13
2023-03-11T05:30:41.396Z,0.10
2023-03-11T05:33:07.955Z,0.09
2023-03-11T05:35:34.456Z,0.13
2023-03-11T05:38:00.822Z,0.10
2023-03-11T05:40:27.329Z,0.11
2023-03-11T05:42:53.713Z,0.16
2023-03-11T05:45:20.426Z,0.11
2023-03-11T05:47:46.789Z,0.16
2023-03-11T05:50:13.231Z,0.11
2023-03-11T05:52:39.636Z,0.09
2023-03-11T05:55:06.369Z,0.11
2023-03-11T05:57:32.707Z,0.12
2023-03-11T06:00:00.178Z,0.12
2023-03-11T06:02:26.628Z,0.12
2023-03-11T06:04:53.297Z,0.13
2023-03-11T06:07:19.863Z,0.10
2023-03-11T06:09:46.265Z,0.14
2023-03-11T06:12:12.637Z,0.11
2023-03-11T06:14:39.046Z,0.13
2023-03-11T06:17:05.525Z,0.11
2023-03-11T06:19:31.998Z,0.11
2023-03-11T06:21:58.390Z,0.14
2023-03-11T06:24:24.809Z,0.09
2023-03-11T06:26:52.580Z,0.13
2023-03-11T06:29:19.541Z,0.15
2023-03-11T06:31:45.996Z,0.14
2023-03-11T06:34:12.504Z,0.12
2023-03-11T06:36:38.871Z,0.12
2023-03-11T06:39:05.303Z,0.15
2023-03-11T06:41:34.253Z,0.09
2023-03-11T06:44:00.694Z,0.11
2023-03-11T06:46:27.051Z,0.13
2023-03-11T06:48:54.326Z,0.11
2023-03-11T06:51:21.477Z,0.12
2023-03-11T06:53:52.653Z,0.13
2023-03-11T06:56:20.714Z,0.10
2023-03-11T06:58:47.250Z,0.11
2023-03-11T07:01:15.119Z,0.12
2023-03-11T07:03:42.116Z,0.08
2023-03-11T07:06:14.063Z,0.10
2023-03-11T07:08:40.995Z,0.16
2023-03-11T07:11:10.618Z,0.09
2023-03-11T07:13:37.214Z,0.11
2023-03-11T07:16:10.279Z,0.08
2023-03-11T07:18:37.070Z,0.10
2023-03-11T07:21:05.602Z,0.06
2023-03-11T07:23:32.786Z,0.03
2023-03-11T07:25:59.262Z,0.09
2023-03-11T07:28:27.864Z,0.09
2023-03-11T07:30:55.048Z,-0.02
2023-03-11T07:33:24.042Z,0.05
2023-03-11T07:35:51.025Z,0.02
2023-03-11T07:38:18.164Z,0.05
2023-03-11T07:40:44.686Z,0.01
2023-03-11T07:43:11.283Z,0.04
2023-03-11T07:45:37.820Z,0.00
2023-03-11T07:48:04.668Z,-0.04
2023-03-11T07:50:31.054Z,-0.02
2023-03-11T07:52:57.525Z,-0.02
2023-03-11T07:55:24.015Z,0.01
2023-03-11T07:57:51.591Z,0.01
2023-03-11T08:00:18.566Z,-0.03
2023-03-11T08:02:44.927Z,-0.04
2023-03-11T08:05:11.544Z,-0.03
2023-03-11T08:07:38.273Z,-0.02
2023-03-11T08:10:04.868Z,0.01
2023-03-11T08:12:31.207Z,0.04
2023-03-11T08:14:57.572Z,0.06
2023-03-11T08:17:23.959Z,0.07
2023-03-11T08:19:50.437Z,0.06
2023-03-11T08:22:16.817Z,0.12
2023-03-11T08:24:43.167Z,0.09
2023-03-11T08:27:09.960Z,0.08
2023-03-11T08:29:36.343Z,0.10
2023-03-11T08:32:03.833Z,0.13
2023-03-11T08:34:30.266Z,0.22
2023-03-11T08:36:56.849Z,0.17
2023-03-11T08:39:23.915Z,0.19
2023-03-11T08:41:50.283Z,0.14
2023-03-11T08:44:16.670Z,0.21
2023-03-11T08:46:43.136Z,0.22
2023-03-11T08:49:09.974Z,0.23
2023-03-11T08:51:36.780Z,0.24
2023-03-11T08:54:04.300Z,0.29
2023-03-11T08:56:30.869Z,0.24
2023-03-11T08:58:57.424Z,0.20
2023-03-11T09:01:23.930Z,0.26
2023-03-11T09:03:50.377Z,0.31
2023-03-11T09:06:17.646Z,0.35
2023-03-11T09:08:45.681Z,0.34
2023-03-11T09:11:13.485Z,0.34
2023-03-11T09:13:44.021Z,0.31
2023-03-11T09:16:18.870Z,0.24
2023-03-11T09:18:45.640Z,0.18
2023-03-11T09:21:12.859Z,0.22
2023-03-11T09:23:41.585Z,0.16
2023-03-11T09:26:09.210Z,0.12
2023-03-11T09:28:35.635Z,0.07
2023-03-11T09:31:02.194Z,0.02
2023-03-11T09:33:28.731Z,0.02
2023-03-11T09:35:55.203Z,0.08
2023-03-11T09:38:21.694Z,0.04
2023-03-11T09:41:07.656Z,0.10
2023-03-11T09:43:55.973Z,0.02
2023-03-11T09:46:51.031Z,0.10
2023-03-11T09:49:38.072Z,0.12
2023-03-11T09:52:12.093Z,0.17
2023-03-11T09:54:42.618Z,0.27
2023-03-11T09:57:14.499Z,0.29
2023-03-11T09:59:43.722Z,0.23
2023-03-11T10:02:16.311Z,0.35
2023-03-11T10:04:56.794Z,0.33
2023-03-11T10:07:33.773Z,0.33
2023-03-11T10:10:00.306Z,0.34
2023-03-11T10:12:52.549Z,0.35
2023-03-11T10:15:48.313Z,0.36
2023-03-11T10:18:32.850Z,0.39
2023-03-11T10:21:17.930Z,0.50
2023-03-11T10:24:14.407Z,0.49
2023-03-11T10:26:45.876Z,0.54
2023-03-11T10:29:21.496Z,0.55
2023-03-11T10:32:07.313Z,0.59
2023-03-11T10:34:45.741Z,0.65
2023-03-11T10:37:18.646Z,0.68
2023-03-11T10:39:48.371Z,0.85
2023-03-11T10:42:27.995Z,0.86
2023-03-11T10:44:54.387Z,0.81
2023-03-11T10:47:23.081Z,0.79
2023-03-11T10:49:50.573Z,0.95
2023-03-11T10:52:17.050Z,0.97
2023-03-11T10:54:47.800Z,1.09
2023-03-11T10:57:34.034Z,0.89
2023-03-11T11:00:09.529Z,0.85
2023-03-11T11:02:49.485Z,0.87
2023-03-11T11:05:18.827Z,0.81
2023-03-11T11:07:46.969Z,0.72
2023-03-11T11:10:15.340Z,0.62
2023-03-11T11:12:56.222Z,0.59
2023-03-11T11:15:34.999Z,0.58
2023-03-11T11:18:19.472Z,0.52
2023-03-11T11:21:02.363Z,0.49
2023-03-11T11:23:38.990Z,0.54
2023-03-11T11:26:16.420Z,0.63
2023-03-11T11:28:43.003Z,0.73
2023-03-11T11:31:26.161Z,0.74
2023-03-11T11:33:55.465Z,0.60
2023-03-11T11:36:34.479Z,0.58
2023-03-11T11:39:05.061Z,0.60
2023-03-11T11:41:35.312Z,0.68
2023-03-11T11:44:06.522Z,0.72
2023-03-11T11:46:49.173Z,0.71
2023-03-11T11:49:20.928Z,0.61
2023-03-11T11:52:12.728Z,0.74
2023-03-11T11:54:50.198Z,0.77
2023-03-11T11:57:19.653Z,0.76
2023-03-11T11:59:47.128Z,0.89
2023-03-11T12:02:19.621Z,1.00
2023-03-11T12:05:09.771Z,1.12
2023-03-11T12:07:52.447Z,1.01
2023-03-11T12:11:05.006Z,1.03
2023-03-11T12:14:02.032Z,1.06
2023-03-11T12:16:52.517Z,1.07
2023-03-11T12:19:34.356Z,1.07
2023-03-11T12:22:29.098Z,1.06
2023-03-11T12:24:55.331Z,1.10
2023-03-11T12:27:34.255Z,1.13
2023-03-11T12:30:13.151Z,1.13
2023-03-11T12:32:50.208Z,1.03
2023-03-11T12:35:29.979Z,1.04
2023-03-11T12:38:04.651Z,1.10
2023-03-11T12:40:43.515Z,1.12
2023-03-11T12:43:25.164Z,1.18
2023-03-11T12:45:53.591Z,1.13
2023-03-11T12:48:49.712Z,1.20
2023-03-11T12:51:31.570Z,1.20
2023-03-11T12:53:58.017Z,1.10
2023-03-11T12:56:42.349Z,1.06
2023-03-11T12:59:39.623Z,1.00
2023-03-11T13:02:31.135Z,0.81
2023-03-11T13:05:25.690Z,0.70
2023-03-11T13:08:15.758Z,0.61
2023-03-11T13:10:47.272Z,0.53
2023-03-11T13:13:39.246Z,0.45
2023-03-11T13:16:14.979Z,0.36
2023-03-11T13:18:43.376Z,0.59
2023-03-11T13:21:27.942Z,0.62
2023-03-11T13:24:19.611Z,0.58
2023-03-11T13:27:04.381Z,0.64
2023-03-11T13:29:51.931Z,0.67
2023-03-11T13:32:44.934Z,0.65
2023-03-11T13:35:59.644Z,0.58
2023-03-11T13:38:50.587Z,0.65
2023-03-11T13:41:30.211Z,0.69
2023-03-11T13:44:09.631Z,0.75
2023-03-11T13:46:38.676Z,0.82
2023-03-11T13:49:16.727Z,0.82
2023-03-11T13:51:45.442Z,0.90
2023-03-11T13:54:19.883Z,0.86
2023-03-11T13:56:54.861Z,0.97
2023-03-11T13:59:27.588Z,1.03
2023-03-11T14:02:00.165Z,1.07
2023-03-11T14:04:36.033Z,1.08
2023-03-11T14:07:35.449Z,1.08
2023-03-11T14:10:24.283Z,1.15
2023-03-11T14:12:51.337Z,1.14
2023-03-11T14:15:26.858Z,1.14
2023-03-11T14:17:54.291Z,1.05
2023-03-11T14:20:25.020Z,1.11
2023-03-11T14:22:53.917Z,0.99
2023-03-11T14:25:36.286Z,1.04
2023-03-11T14:28:04.790Z,1.10
2023-03-11T14:30:34.046Z,1.07
2023-03-11T14:33:20.502Z,1.13
2023-03-11T14:35:55.913Z,1.32
2023-03-11T14:38:28.583Z,1.44
2023-03-11T14:40:57.734Z,1.47
2023-03-11T14:43:24.430Z,1.44
2023-03-11T14:45:52.580Z,1.39
2023-03-11T14:48:21.863Z,1.41
2023-03-11T14:50:49.573Z,1.21
2023-03-11T14:53:32.879Z,1.23
2023-03-11T14:56:02.554Z,1.19
2023-03-11T14:58:46.423Z,1.17
2023-03-11T15:01:24.196Z,1.19
2023-03-11T15:03:56.200Z,1.15
2023-03-11T15:06:28.413Z,1.17
2023-03-11T15:09:08.069Z,1.17
2023-03-11T15:11:55.008Z,1.25
2023-03-11T15:14:25.791Z,1.21
2023-03-11T15:17:08.311Z,1.22
2023-03-11T15:19:34.743Z,1.25
2023-03-11T15:22:24.237Z,1.26
2023-03-11T15:24:53.026Z,1.26
2023-03-11T15:27:29.411Z,1.31
2023-03-11T15:29:56.888Z,1.27
2023-03-11T15:32:40.522Z,1.21
2023-03-11T15:35:13.023Z,1.22
2023-03-11T15:37:41.201Z,1.29
2023-03-11T15:40:35.256Z,1.32
2023-03-11T15:43:27.746Z,1.23
2023-03-11T15:45:56.284Z,1.27
2023-03-11T15:48:23.221Z,1.32
2023-03-11T15:50:58.423Z,1.24
2023-03-11T15:53:26.307Z,1.23
2023-03-11T15:55:54.508Z,1.22
2023-03-11T15:58:21.640Z,1.17
2023-03-11T16:00:54.003Z,1.24
2023-03-11T16:03:20.730Z,1.13
2023-03-11T16:05:47.531Z,1.21
2023-03-11T16:08:14.101Z,1.26
2023-03-11T16:10:40.894Z,1.17
2023-03-11T16:13:09.919Z,1.23
2023-03-11T16:15:37.920Z,1.20
2023-03-11T16:18:07.499Z,1.14
2023-03-11T16:20:44.680Z,1.12
2023-03-11T16:23:18.814Z,1.10
2023-03-11T16:25:45.719Z,1.14
2023-03-11T16:28:14.551Z,1.13
2023-03-11T16:30:41.336Z,1.13
2023-03-11T16:33:07.933Z,1.12
2023-03-11T16:35:34.605Z,1.19
2023-03-11T16:38:01.306Z,1.09
2023-03-11T16:40:28.834Z,1.09
2023-03-11T16:43:00.318Z,1.09
2023-03-11T16:45:27.177Z,1.08
2023-03-11T16:47:53.608Z,1.08
2023-03-11T16:50:20.913Z,1.06
2023-03-11T16:52:47.624Z,1.00
2023-03-11T16:55:14.018Z,0.98
2023-03-11T16:57:40.457Z,1.02
2023-03-11T17:00:09.725Z,0.94
2023-03-11T17:02:37.067Z,0.93
2023-03-11T17:05:05.136Z,0.89
2023-03-11T17:07:32.230Z,0.89
2023-03-11T17:09:59.861Z,0.88
2023-03-11T17:12:26.628Z,0.90
2023-03-11T17:14:53.779Z,0.86
2023-03-11T17:17:21.179Z,0.81
2023-03-11T17:19:47.548Z,0.76
2023-03-11T17:22:14.558Z,0.71
2023-03-11T17:24:41.098Z,0.76
2023-03-11T17:27:07.633Z,0.67
2023-03-11T17:29:34.190Z,0.68
2023-03-11T17:32:01.637Z,0.62
2023-03-11T17:34:28.299Z,0.57
2023-03-11T17:36:56.013Z,0.59
2023-03-11T17:39:22.481Z,0.52
2023-03-11T17:41:49.145Z,0.50
2023-03-11T17:44:15.484Z,0.49
2023-03-11T17:46:41.952Z,0.55
2023-03-11T17:49:12.990Z,0.49
2023-03-11T17:51:39.383Z,0.44
2023-03-11T17:54:06.493Z,0.45
2023-03-11T17:56:32.853Z,0.38
2023-03-11T17:58:59.474Z,0.43
2023-03-11T18:01:28.018Z,0.37
2023-03-11T18:03:54.819Z,0.36
2023-03-11T18:06:21.760Z,0.27
2023-03-11T18:08:48.572Z,0.29
2023-03-11T18:11:19.038Z,0.32
2023-03-11T18:13:45.934Z,0.27
2023-03-11T18:16:15.070Z,0.26
2023-03-11T18:18:42.430Z,0.23
2023-03-11T18:21:14.780Z,0.21
2023-03-11T18:23:41.895Z,0.19
2023-03-11T18:26:11.306Z,0.21
2023-03-11T18:28:39.374Z,0.18
2023-03-11T18:31:14.470Z,0.23
2023-03-11T18:33:42.051Z,0.12
2023-03-11T18:36:36.498Z,0.15
2023-03-11T18:39:04.804Z,0.10
2023-03-11T18:41:33.992Z,0.09
2023-03-11T18:44:00.942Z,0.11
2023-03-11T18:46:31.482Z,0.04
2023-03-11T18:48:59.365Z,0.02
2023-03-11T18:51:28.044Z,0.01
2023-03-11T18:53:54.701Z,0.01
2023-03-11T18:56:21.209Z,0.08
2023-03-11T18:58:47.584Z,-0.10
2023-03-11T19:01:19.071Z,-0.13
2023-03-11T19:03:50.728Z,-0.15
2023-03-11T19:06:17.207Z,-0.16
2023-03-11T19:08:43.738Z,-0.21
2023-03-11T19:11:12.696Z,-0.22
2023-03-11T19:13:46.615Z,-0.22
2023-03-11T19:16:15.009Z,-0.17
2023-03-11T19:18:41.553Z,-0.25
2023-03-11T19:21:10.380Z,-0.30
2023-03-11T19:23:36.798Z,-0.34
2023-03-11T19:26:03.815Z,-0.41
2023-03-11T19:28:30.302Z,-0.44
2023-03-11T19:30:58.514Z,-0.41
2023-03-11T19:33:25.439Z,-0.46
2023-03-11T19:35:53.395Z,-0.50
2023-03-11T19:38:20.412Z,-0.53
2023-03-11T19:40:51.563Z,-0.65
2023-03-11T19:43:19.197Z,-0.71
2023-03-11T19:45:49.507Z,-0.63
2023-03-11T19:48:16.933Z,-0.61
2023-03-11T19:50:43.698Z,-0.68
2023-03-11T19:53:10.113Z,-0.70
2023-03-11T19:55:36.552Z,-0.69
2023-03-11T19:58:03.062Z,-0.70
2023-03-11T20:00:30.505Z,-0.73
2023-03-11T20:02:57.106Z,-0.72
2023-03-11T20:05:23.527Z,-0.69
2023-03-11T20:07:49.885Z,-0.70
2023-03-11T20:10:17.590Z,-0.68
2023-03-11T20:12:59.672Z,-0.66
2023-03-11T20:15:28.361Z,-0.71
2023-03-11T20:17:54.785Z,-0.78
2023-03-11T20:20:21.786Z,-0.83
2023-03-11T20:22:48.535Z,-0.89
2023-03-11T20:25:16.108Z,-0.92
2023-03-11T20:27:42.895Z,-0.94
2023-03-11T20:30:09.990Z,-0.90
2023-03-11T20:32:36.381Z,-0.80
2023-03-11T20:35:03.302Z,-0.82
2023-03-11T20:37:30.561Z,-0.92
2023-03-11T20:39:57.228Z,-0.97
2023-03-11T20:42:23.950Z,-0.97
2023-03-11T20:44:54.567Z,-0.92
2023-03-11T20:47:21.079Z,-0.95
2023-03-11T20:49:47.487Z,-0.99
2023-03-11T20:52:13.981Z,-1.06
2023-03-11T20:54:40.605Z,-1.07
2023-03-11T20:57:07.649Z,-1.09
2023-03-11T20:59:34.145Z,-1.02
2023-03-11T21:02:00.722Z,-0.99
2023-03-11T21:04:27.460Z,-1.04
2023-03-11T21:06:55.293Z,-1.02
2023-03-11T21:09:21.805Z,-1.00
2023-03-11T21:11:48.209Z,-1.01
2023-03-11T21:14:16.823Z,-1.04
2023-03-11T21:16:45.328Z,-1.03
2023-03-11T21:19:13.344Z,-1.04
2023-03-11T21:21:40.300Z,-1.05
2023-03-11T21:24:07.019Z,-0.99
2023-03-11T21:26:34.724Z,-1.05
2023-03-11T21:29:01.148Z,-1.03
2023-03-11T21:31:29.465Z,-1.05
2023-03-11T21:33:58.557Z,-1.00
2023-03-11T21:36:25.109Z,-0.99
2023-03-11T21:38:51.783Z,-1.01
2023-03-11T21:41:21.401Z,-0.99
2023-03-11T21:43:48.050Z,-0.96
2023-03-11T21:46:17.149Z,-0.94
2023-03-11T21:48:44.609Z,-0.98
2023-03-11T21:51:11.370Z,-0.92
2023-03-11T21:53:38.130Z,-0.98
2023-03-11T21:56:05.016Z,-0.92
2023-03-11T21:58:32.310Z,-1.00
2023-03-11T22:00:59.319Z,-0.98
2023-03-11T22:03:26.067Z,-1.05
2023-03-11T22:05:59.483Z,-1.00
2023-03-11T22:08:26.734Z,-1.09
2023-03-11T22:10:53.744Z,-1.09
2023-03-11T22:13:21.015Z,-1.07
2023-03-11T22:15:47.945Z,-1.15
2023-03-11T22:18:14.441Z,-1.19
2023-03-11T22:20:41.948Z,-1.25
2023-03-11T22:23:08.580Z,-1.24
2023-03-11T22:25:35.044Z,-1.27
2023-03-11T22:28:01.417Z,-1.26
2023-03-11T22:30:27.760Z,-1.35
2023-03-11T22:32:54.221Z,-1.32
2023-03-11T22:35:20.627Z,-1.33
2023-03-11T22:37:46.983Z,-1.17
2023-03-11T22:40:13.416Z,-1.37
2023-03-11T22:42:39.810Z,-1.38
2023-03-11T22:45:07.404Z,-1.33
2023-03-11T22:47:33.987Z,-1.41
2023-03-11T22:50:00.371Z,-1.49
2023-03-11T22:52:26.743Z,-1.50
2023-03-11T22:54:53.178Z,-1.52
2023-03-11T22:57:19.642Z,-1.55
2023-03-11T22:59:46.082Z,-1.54
2023-03-11T23:02:12.434Z,-1.42
2023-03-11T23:04:38.794Z,-1.47
2023-03-11T23:07:05.240Z,-1.39
2023-03-11T23:09:31.596Z,-1.42
2023-03-11T23:11:57.958Z,-1.47
2023-03-11T23:14:33.986Z,-1.47
2023-03-11T23:17:10.474Z,-1.54
2023-03-11T23:19:36.943Z,-1.55
2023-03-11T23:22:03.398Z,-1.58
2023-03-11T23:24:29.837Z,-1.62
2023-03-11T23:26:56.201Z,-1.64
2023-03-11T23:29:22.598Z,-1.64
2023-03-11T23:31:48.999Z,-1.63
2023-03-11T23:34:15.322Z,-1.65
2023-03-11T23:36:41.687Z,-1.65
2023-03-11T23:39:08.106Z,-1.64
2023-03-11T23:41:35.824Z,-1.65
2023-03-11T23:44:02.181Z,-1.65
2023-03-11T23:46:28.590Z,-1.66
2023-03-11T23:48:54.970Z,-1.57
2023-03-11T23:51:21.456Z,-1.70
2023-03-11T23:53:47.819Z,-1.72
2023-03-11T23:56:17.320Z,-1.77
2023-03-11T23:58:44.500Z,-1.79
